sensor_id;sensor_type;location;lat;lon;timestamp;pressure;altitude;pressure_sealevel;temperature;humidity
24825;BME280;12910;57.690;11.974;2023-01-28T00:00:55;101768.03;;;1.01;100.00
24825;BME280;12910;57.690;11.974;2023-01-28T00:03:21;101752.97;;;1.02;100.00
24825;BME280;12910;57.690;11.974;2023-01-28T00:05:46;101735.97;;;1.00;100.00
24825;BME280;12910;57.690;11.974;2023-01-28T00:08:11;101736.94;;;1.02;100.00
24825;BME280;12910;57.690;11.974;2023-01-28T00:10:39;101733.88;;;1.06;100.00
24825;BME280;12910;57.690;11.974;2023-01-28T00:13:05;101735.63;;;1.07;100.00
24825;BME280;12910;57.690;11.974;2023-01-28T00:15:31;101711.47;;;0.99;100.00
24825;BME280;12910;57.690;11.974;2023-01-28T00:17:56;101736.63;;;1.09;100.00
24825;BME280;12910;57.690;11.974;2023-01-28T00:20:22;101735.22;;;1.13;100.00
24825;BME280;12910;57.690;11.974;2023-01-28T00:22:47;101742.66;;;1.11;100.00
24825;BME280;12910;57.690;11.974;2023-01-28T00:25:13;101733.53;;;1.13;100.00
24825;BME280;12910;57.690;11.974;2023-01-28T00:27:38;101730.16;;;1.13;100.00
24825;BME280;12910;57.690;11.974;2023-01-28T00:30:04;101731.03;;;1.13;100.00
24825;BME280;12910;57.690;11.974;2023-01-28T00:32:31;101742.13;;;1.15;100.00
24825;BME280;12910;57.690;11.974;2023-01-28T00:34:56;101733.69;;;1.15;100.00
24825;BME280;12910;57.690;11.974;2023-01-28T00:37:22;101736.31;;;1.16;100.00
24825;BME280;12910;57.690;11.974;2023-01-28T00:39:48;101717.41;;;1.11;100.00
24825;BME280;12910;57.690;11.974;2023-01-28T00:42:13;101722.59;;;1.13;100.00
24825;BME280;12910;57.690;11.974;2023-01-28T00:44:38;101734.78;;;1.18;100.00
24825;BME280;12910;57.690;11.974;2023-01-28T00:47:04;101722.16;;;1.18;100.00
24825;BME280;12910;57.690;11.974;2023-01-28T00:49:29;101730.06;;;1.23;100.00
24825;BME280;12910;57.690;11.974;2023-01-28T00:51:55;101728.41;;;1.23;100.00
24825;BME280;12910;57.690;11.974;2023-01-28T00:54:20;101713.25;;;1.23;100.00
24825;BME280;12910;57.690;11.974;2023-01-28T00:56:46;101696.13;;;1.19;100.00
24825;BME280;12910;57.690;11.974;2023-01-28T00:59:11;101702.16;;;1.21;100.00
24825;BME280;12910;57.690;11.974;2023-01-28T01:01:38;101697.00;;;1.20;100.00
24825;BME280;12910;57.690;11.974;2023-01-28T01:04:03;101704.66;;;1.21;100.00
24825;BME280;12910;57.690;11.974;2023-01-28T01:06:37;101692.81;;;1.20;100.00
24825;BME280;12910;57.690;11.974;2023-01-28T01:09:06;101694.81;;;1.24;100.00
24825;BME280;12910;57.690;11.974;2023-01-28T01:11:32;101701.63;;;1.26;100.00
24825;BME280;12910;57.690;11.974;2023-01-28T01:13:58;101702.47;;;1.26;100.00
24825;BME280;12910;57.690;11.974;2023-01-28T01:16:27;101692.50;;;1.28;100.00
24825;BME280;12910;57.690;11.974;2023-01-28T01:18:53;101686.47;;;1.26;100.00
24825;BME280;12910;57.690;11.974;2023-01-28T01:21:21;101687.31;;;1.26;100.00
24825;BME280;12910;57.690;11.974;2023-01-28T01:23:47;101690.66;;;1.25;100.00
24825;BME280;12910;57.690;11.974;2023-01-28T01:26:13;101685.59;;;1.25;100.00
24825;BME280;12910;57.690;11.974;2023-01-28T01:28:39;101688.44;;;1.30;100.00
24825;BME280;12910;57.690;11.974;2023-01-28T01:31:09;101681.84;;;1.32;100.00
24825;BME280;12910;57.690;11.974;2023-01-28T01:33:34;101669.09;;;1.30;100.00
24825;BME280;12910;57.690;11.974;2023-01-28T01:36:00;101669.09;;;1.30;100.00
24825;BME280;12910;57.690;11.974;2023-01-28T01:38:27;101677.09;;;1.36;100.00
24825;BME280;12910;57.690;11.974;2023-01-28T01:40:56;101685.78;;;1.40;100.00
24825;BME280;12910;57.690;11.974;2023-01-28T01:43:22;101675.66;;;1.40;100.00
24825;BME280;12910;57.690;11.974;2023-01-28T01:45:52;101667.31;;;1.41;100.00
24825;BME280;12910;57.690;11.974;2023-01-28T01:48:22;101674.38;;;1.45;100.00
24825;BME280;12910;57.690;11.974;2023-01-28T01:51:03;101675.22;;;1.46;100.00
24825;BME280;12910;57.690;11.974;2023-01-28T01:53:34;101676.56;;;1.40;100.00
24825;BME280;12910;57.690;11.974;2023-01-28T01:56:03;101685.56;;;1.49;100.00
24825;BME280;12910;57.690;11.974;2023-01-28T01:58:33;101689.75;;;1.48;100.00
24825;BME280;12910;57.690;11.974;2023-01-28T02:00:59;101681.38;;;1.49;100.00
24825;BME280;12910;57.690;11.974;2023-01-28T02:03:35;101682.38;;;1.51;100.00
24825;BME280;12910;57.690;11.974;2023-01-28T02:06:03;101687.31;;;1.50;100.00
24825;BME280;12910;57.690;11.974;2023-01-28T02:08:28;101678.06;;;1.50;100.00
24825;BME280;12910;57.690;11.974;2023-01-28T02:10:59;101669.84;;;1.53;100.00
24825;BME280;12910;57.690;11.974;2023-01-28T02:13:28;101668.97;;;1.52;100.00
24825;BME280;12910;57.690;11.974;2023-01-28T02:15:58;101669.94;;;1.54;100.00
24825;BME280;12910;57.690;11.974;2023-01-28T02:18:24;101659.63;;;1.51;100.00
24825;BME280;12910;57.690;11.974;2023-01-28T02:35:09;101644.59;;;1.53;100.00
24825;BME280;12910;57.690;11.974;2023-01-28T02:37:40;101646.53;;;1.57;100.00
24825;BME280;12910;57.690;11.974;2023-01-28T02:40:12;101639.84;;;1.58;100.00
24825;BME280;12910;57.690;11.974;2023-01-28T02:42:39;101630.53;;;1.57;100.00
24825;BME280;12910;57.690;11.974;2023-01-28T02:47:45;101626.56;;;1.60;100.00
24825;BME280;12910;57.690;11.974;2023-01-28T02:50:36;101624.88;;;1.61;100.00
24825;BME280;12910;57.690;11.974;2023-01-28T02:53:16;101624.03;;;1.60;100.00
24825;BME280;12910;57.690;11.974;2023-01-28T02:56:35;101629.41;;;1.65;100.00
24825;BME280;12910;57.690;11.974;2023-01-28T03:04:33;101618.50;;;1.66;100.00
24825;BME280;12910;57.690;11.974;2023-01-28T03:07:04;101615.00;;;1.64;100.00
24825;BME280;12910;57.690;11.974;2023-01-28T03:09:31;101613.25;;;1.63;100.00
24825;BME280;12910;57.690;11.974;2023-01-28T03:12:13;101610.16;;;1.67;100.00
24825;BME280;12910;57.690;11.974;2023-01-28T03:15:13;101610.25;;;1.68;100.00
24825;BME280;12910;57.690;11.974;2023-01-28T03:18:24;101603.53;;;1.69;100.00
24825;BME280;12910;57.690;11.974;2023-01-28T03:21:14;101607.06;;;1.71;100.00
24825;BME280;12910;57.690;11.974;2023-01-28T03:24:10;101613.00;;;1.71;100.00
24825;BME280;12910;57.690;11.974;2023-01-28T03:27:05;101603.00;;;1.73;100.00
24825;BME280;12910;57.690;11.974;2023-01-28T03:29:53;101583.53;;;1.72;100.00
24825;BME280;12910;57.690;11.974;2023-01-28T03:32:39;101578.47;;;1.72;100.00
24825;BME280;12910;57.690;11.974;2023-01-28T03:35:24;101580.25;;;1.73;100.00
24825;BME280;12910;57.690;11.974;2023-01-28T03:38:11;101577.72;;;1.73;100.00
24825;BME280;12910;57.690;11.974;2023-01-28T03:40:59;101574.31;;;1.73;100.00
24825;BME280;12910;57.690;11.974;2023-01-28T03:43:25;101578.47;;;1.72;100.00
24825;BME280;12910;57.690;11.974;2023-01-28T03:45:50;101582.88;;;1.75;100.00
24825;BME280;12910;57.690;11.974;2023-01-28T03:48:18;101578.47;;;1.72;100.00
24825;BME280;12910;57.690;11.974;2023-01-28T03:50:43;101580.66;;;1.79;100.00
24825;BME280;12910;57.690;11.974;2023-01-28T03:53:09;101571.44;;;1.80;100.00
24825;BME280;12910;57.690;11.974;2023-01-28T03:55:49;101562.94;;;1.79;100.00
24825;BME280;12910;57.690;11.974;2023-01-28T03:58:16;101565.47;;;1.79;100.00
24825;BME280;12910;57.690;11.974;2023-01-28T04:00:42;101566.47;;;1.81;100.00
24825;BME280;12910;57.690;11.974;2023-01-28T04:03:08;101564.84;;;1.82;100.00
24825;BME280;12910;57.690;11.974;2023-01-28T04:05:43;101574.25;;;1.84;100.00
24825;BME280;12910;57.690;11.974;2023-01-28T04:08:09;101571.94;;;1.88;100.00
24825;BME280;12910;57.690;11.974;2023-01-28T04:10:34;101561.63;;;1.84;100.00
24825;BME280;12910;57.690;11.974;2023-01-28T04:12:59;101563.47;;;1.87;100.00
24825;BME280;12910;57.690;11.974;2023-01-28T04:15:25;101563.47;;;1.87;100.00
24825;BME280;12910;57.690;11.974;2023-01-28T04:17:50;101562.72;;;1.88;100.00
24825;BME280;12910;57.690;11.974;2023-01-28T04:20:16;101568.63;;;1.89;100.00
24825;BME280;12910;57.690;11.974;2023-01-28T04:22:42;101562.78;;;1.90;100.00
24825;BME280;12910;57.690;11.974;2023-01-28T04:25:08;101557.88;;;1.91;100.00
24825;BME280;12910;57.690;11.974;2023-01-28T04:27:34;101543.72;;;1.81;100.00
24825;BME280;12910;57.690;11.974;2023-01-28T04:29:59;101555.22;;;1.90;100.00
24825;BME280;12910;57.690;11.974;2023-01-28T04:32:25;101546.84;;;1.91;100.00
24825;BME280;12910;57.690;11.974;2023-01-28T04:34:51;101544.16;;;1.88;100.00
24825;BME280;12910;57.690;11.974;2023-01-28T04:37:16;101551.13;;;1.92;100.00
24825;BME280;12910;57.690;11.974;2023-01-28T04:39:42;101541.81;;;1.91;100.00
24825;BME280;12910;57.690;11.974;2023-01-28T04:42:07;101535.19;;;1.93;100.00
24825;BME280;12910;57.690;11.974;2023-01-28T04:44:33;101535.97;;;1.92;100.00
24825;BME280;12910;57.690;11.974;2023-01-28T04:46:58;101539.28;;;1.91;100.00
24825;BME280;12910;57.690;11.974;2023-01-28T04:49:23;101549.38;;;1.91;100.00
24825;BME280;12910;57.690;11.974;2023-01-28T04:51:49;101554.88;;;1.97;100.00
24825;BME280;12910;57.690;11.974;2023-01-28T04:54:14;101527.84;;;1.96;100.00
24825;BME280;12910;57.690;11.974;2023-01-28T04:56:39;101516.13;;;1.84;100.00
24825;BME280;12910;57.690;11.974;2023-01-28T04:59:05;101529.47;;;1.95;100.00
24825;BME280;12910;57.690;11.974;2023-01-28T05:01:30;101517.72;;;1.96;100.00
24825;BME280;12910;57.690;11.974;2023-01-28T05:03:55;101516.34;;;2.01;100.00
24825;BME280;12910;57.690;11.974;2023-01-28T05:06:21;101516.25;;;1.99;100.00
24825;BME280;12910;57.690;11.974;2023-01-28T05:08:46;101508.56;;;1.98;100.00
24825;BME280;12910;57.690;11.974;2023-01-28T05:11:12;101509.53;;;2.00;100.00
24825;BME280;12910;57.690;11.974;2023-01-28T05:13:38;101500.03;;;1.96;100.00
24825;BME280;12910;57.690;11.974;2023-01-28T05:16:04;101507.00;;;2.00;100.00
24825;BME280;12910;57.690;11.974;2023-01-28T05:18:30;101495.06;;;1.97;100.00
24825;BME280;12910;57.690;11.974;2023-01-28T05:20:55;101478.34;;;1.99;100.00
24825;BME280;12910;57.690;11.974;2023-01-28T05:23:21;101487.84;;;2.03;100.00
24825;BME280;12910;57.690;11.974;2023-01-28T05:25:46;101504.00;;;2.06;100.00
24825;BME280;12910;57.690;11.974;2023-01-28T05:28:12;101491.06;;;2.01;100.00
24825;BME280;12910;57.690;11.974;2023-01-28T05:30:37;101500.50;;;2.03;100.00
24825;BME280;12910;57.690;11.974;2023-01-28T05:33:03;101491.75;;;1.98;100.00
24825;BME280;12910;57.690;11.974;2023-01-28T05:35:28;101497.00;;;2.01;100.00
24825;BME280;12910;57.690;11.974;2023-01-28T05:37:54;101500.63;;;2.05;100.00
24825;BME280;12910;57.690;11.974;2023-01-28T05:40:19;101499.41;;;2.00;100.00
24825;BME280;12910;57.690;11.974;2023-01-28T05:42:44;101496.34;;;2.04;100.00
24825;BME280;12910;57.690;11.974;2023-01-28T05:45:10;101491.97;;;2.01;100.00
24825;BME280;12910;57.690;11.974;2023-01-28T05:47:36;101498.09;;;2.05;100.00
24825;BME280;12910;57.690;11.974;2023-01-28T05:50:01;101509.97;;;2.06;100.00
24825;BME280;12910;57.690;11.974;2023-01-28T05:52:26;101508.38;;;2.08;100.00
24825;BME280;12910;57.690;11.974;2023-01-28T05:54:52;101497.97;;;2.03;100.00
24825;BME280;12910;57.690;11.974;2023-01-28T05:57:17;101494.09;;;2.09;100.00
24825;BME280;12910;57.690;11.974;2023-01-28T05:59:42;101496.50;;;2.07;100.00
24825;BME280;12910;57.690;11.974;2023-01-28T06:02:08;101514.13;;;2.06;100.00
24825;BME280;12910;57.690;11.974;2023-01-28T06:04:33;101526.09;;;2.08;100.00
24825;BME280;12910;57.690;11.974;2023-01-28T06:06:59;101521.03;;;2.08;100.00
24825;BME280;12910;57.690;11.974;2023-01-28T06:09:24;101521.03;;;2.08;100.00
24825;BME280;12910;57.690;11.974;2023-01-28T06:11:49;101520.72;;;2.03;100.00
24825;BME280;12910;57.690;11.974;2023-01-28T06:14:15;101514.13;;;2.06;100.00
24825;BME280;12910;57.690;11.974;2023-01-28T06:16:40;101516.94;;;2.10;100.00
24825;BME280;12910;57.690;11.974;2023-01-28T06:19:06;101522.00;;;2.10;100.00
24825;BME280;12910;57.690;11.974;2023-01-28T06:21:31;101509.06;;;2.06;100.00
24825;BME280;12910;57.690;11.974;2023-01-28T06:23:56;101516.09;;;2.10;100.00
24825;BME280;12910;57.690;11.974;2023-01-28T06:26:22;101517.72;;;2.09;100.00
24825;BME280;12910;57.690;11.974;2023-01-28T06:28:47;101517.94;;;2.12;100.00
24825;BME280;12910;57.690;11.974;2023-01-28T06:31:13;101511.97;;;2.12;100.00
24825;BME280;12910;57.690;11.974;2023-01-28T06:33:38;101511.03;;;2.10;100.00
24825;BME280;12910;57.690;11.974;2023-01-28T06:36:04;101511.88;;;2.10;100.00
24825;BME280;12910;57.690;11.974;2023-01-28T06:38:31;101520.47;;;2.12;100.00
24825;BME280;12910;57.690;11.974;2023-01-28T06:40:56;101500.22;;;2.12;100.00
24825;BME280;12910;57.690;11.974;2023-01-28T06:43:22;101503.75;;;2.14;100.00
24825;BME280;12910;57.690;11.974;2023-01-28T06:45:56;101498.47;;;2.11;100.00
24825;BME280;12910;57.690;11.974;2023-01-28T06:48:22;101512.88;;;2.12;100.00
24825;BME280;12910;57.690;11.974;2023-01-28T06:50:48;101515.41;;;2.12;100.00
24825;BME280;12910;57.690;11.974;2023-01-28T06:53:14;101521.44;;;2.14;100.00
24825;BME280;12910;57.690;11.974;2023-01-28T06:55:40;101516.09;;;2.10;100.00
24825;BME280;12910;57.690;11.974;2023-01-28T06:58:05;101510.91;;;2.08;100.00
24825;BME280;12910;57.690;11.974;2023-01-28T07:00:30;101508.28;;;2.07;100.00
24825;BME280;12910;57.690;11.974;2023-01-28T07:02:56;101515.31;;;2.11;100.00
24825;BME280;12910;57.690;11.974;2023-01-28T07:05:22;101513.66;;;2.11;100.00
24825;BME280;12910;57.690;11.974;2023-01-28T07:07:47;101524.63;;;2.12;100.00
24825;BME280;12910;57.690;11.974;2023-01-28T07:10:13;101509.38;;;2.10;100.00
24825;BME280;12910;57.690;11.974;2023-01-28T07:12:38;101491.88;;;2.13;100.00
24825;BME280;12910;57.690;11.974;2023-01-28T07:15:04;101488.56;;;2.14;100.00
24825;BME280;12910;57.690;11.974;2023-01-28T07:17:29;101497.09;;;2.16;100.00
24825;BME280;12910;57.690;11.974;2023-01-28T07:19:55;101505.59;;;2.17;100.00
24825;BME280;12910;57.690;11.974;2023-01-28T07:22:20;101509.09;;;2.19;100.00
24825;BME280;12910;57.690;11.974;2023-01-28T07:24:45;101501.31;;;2.16;100.00
24825;BME280;12910;57.690;11.974;2023-01-28T07:27:11;101520.19;;;2.21;100.00
24825;BME280;12910;57.690;11.974;2023-01-28T07:29:36;101504.81;;;2.18;100.00
24825;BME280;12910;57.690;11.974;2023-01-28T07:32:01;101507.63;;;2.23;100.00
24825;BME280;12910;57.690;11.974;2023-01-28T07:34:28;101518.63;;;2.23;100.00
24825;BME280;12910;57.690;11.974;2023-01-28T07:36:54;101505.69;;;2.18;100.00
24825;BME280;12910;57.690;11.974;2023-01-28T07:39:19;101528.16;;;2.27;100.00
24825;BME280;12910;57.690;11.974;2023-01-28T07:41:44;101520.56;;;2.27;100.00
24825;BME280;12910;57.690;11.974;2023-01-28T07:44:10;101510.09;;;2.21;100.00
24825;BME280;12910;57.690;11.974;2023-01-28T07:46:36;101524.09;;;2.29;100.00
24825;BME280;12910;57.690;11.974;2023-01-28T07:49:01;101504.63;;;2.28;100.00
24825;BME280;12910;57.690;11.974;2023-01-28T07:51:26;101519.91;;;2.30;100.00
24825;BME280;12910;57.690;11.974;2023-01-28T07:53:52;101504.50;;;2.27;100.00
24825;BME280;12910;57.690;11.974;2023-01-28T07:56:17;101514.28;;;2.34;100.00
24825;BME280;12910;57.690;11.974;2023-01-28T07:58:42;101508.53;;;2.37;100.00
24825;BME280;12910;57.690;11.974;2023-01-28T08:01:08;101505.78;;;2.33;100.00
24825;BME280;12910;57.690;11.974;2023-01-28T08:03:33;101517.88;;;2.38;100.00
24825;BME280;12910;57.690;11.974;2023-01-28T08:05:59;101515.41;;;2.39;100.00
24825;BME280;12910;57.690;11.974;2023-01-28T08:08:25;101503.47;;;2.37;100.00
24825;BME280;12910;57.690;11.974;2023-01-28T08:10:51;101509.59;;;2.40;100.00
24825;BME280;12910;57.690;11.974;2023-01-28T08:13:17;101498.69;;;2.41;100.00
24825;BME280;12910;57.690;11.974;2023-01-28T08:15:44;101500.44;;;2.42;100.00
24825;BME280;12910;57.690;11.974;2023-01-28T08:18:11;101488.78;;;2.44;100.00
24825;BME280;12910;57.690;11.974;2023-01-28T08:20:38;101492.47;;;2.49;100.00
24825;BME280;12910;57.690;11.974;2023-01-28T08:23:10;101485.75;;;2.50;100.00
24825;BME280;12910;57.690;11.974;2023-01-28T08:25:36;101469.69;;;2.49;100.00
24825;BME280;12910;57.690;11.974;2023-01-28T08:28:03;101479.13;;;2.52;100.00
24825;BME280;12910;57.690;11.974;2023-01-28T08:30:29;101472.41;;;2.53;100.00
24825;BME280;12910;57.690;11.974;2023-01-28T08:32:55;101464.22;;;2.57;100.00
24825;BME280;12910;57.690;11.974;2023-01-28T08:35:22;101460.13;;;2.59;100.00
24825;BME280;12910;57.690;11.974;2023-01-28T08:37:48;101456.91;;;2.61;100.00
24825;BME280;12910;57.690;11.974;2023-01-28T08:40:13;101468.91;;;2.64;100.00
24825;BME280;12910;57.690;11.974;2023-01-28T08:42:39;101474.75;;;2.63;100.00
24825;BME280;12910;57.690;11.974;2023-01-28T08:45:05;101444.94;;;2.59;100.00
24825;BME280;12910;57.690;11.974;2023-01-28T08:47:30;101453.72;;;2.64;100.00
24825;BME280;12910;57.690;11.974;2023-01-28T08:49:56;101457.97;;;2.65;100.00
24825;BME280;12910;57.690;11.974;2023-01-28T08:52:21;101449.53;;;2.64;100.00
24825;BME280;12910;57.690;11.974;2023-01-28T08:54:46;101430.06;;;2.63;100.00
24825;BME280;12910;57.690;11.974;2023-01-28T08:57:12;101444.38;;;2.63;100.00
24825;BME280;12910;57.690;11.974;2023-01-28T08:59:37;101448.75;;;2.65;100.00
24825;BME280;12910;57.690;11.974;2023-01-28T09:02:11;101458.94;;;2.67;100.00
24825;BME280;12910;57.690;11.974;2023-01-28T09:04:37;101457.41;;;2.69;100.00
24825;BME280;12910;57.690;11.974;2023-01-28T09:07:02;101457.31;;;2.68;100.00
24825;BME280;12910;57.690;11.974;2023-01-28T09:09:29;101436.94;;;2.66;100.00
24825;BME280;12910;57.690;11.974;2023-01-28T09:11:54;101434.41;;;2.66;100.00
24825;BME280;12910;57.690;11.974;2023-01-28T09:14:20;101447.19;;;2.68;100.00
24825;BME280;12910;57.690;11.974;2023-01-28T09:16:45;101442.97;;;2.68;100.00
24825;BME280;12910;57.690;11.974;2023-01-28T09:19:10;101443.19;;;2.71;100.00
24825;BME280;12910;57.690;11.974;2023-01-28T09:21:38;101432.38;;;2.74;100.00
24825;BME280;12910;57.690;11.974;2023-01-28T09:24:04;101418.84;;;2.73;100.00
24825;BME280;12910;57.690;11.974;2023-01-28T09:26:29;101403.47;;;2.70;100.00
24825;BME280;12910;57.690;11.974;2023-01-28T09:28:54;101424.19;;;2.78;100.00
24825;BME280;12910;57.690;11.974;2023-01-28T09:31:20;101429.41;;;2.81;100.00
24825;BME280;12910;57.690;11.974;2023-01-28T09:33:46;101438.69;;;2.80;100.00
24825;BME280;12910;57.690;11.974;2023-01-28T09:36:11;101422.81;;;2.83;100.00
24825;BME280;12910;57.690;11.974;2023-01-28T09:38:37;101422.81;;;2.83;100.00
24825;BME280;12910;57.690;11.974;2023-01-28T09:41:21;101430.31;;;2.82;100.00
24825;BME280;12910;57.690;11.974;2023-01-28T09:44:02;101433.91;;;2.85;100.00
24825;BME280;12910;57.690;11.974;2023-01-28T09:46:38;101403.03;;;2.77;100.00
24825;BME280;12910;57.690;11.974;2023-01-28T09:49:26;101400.59;;;2.79;100.00
24825;BME280;12910;57.690;11.974;2023-01-28T09:51:56;101415.91;;;2.80;100.00
24825;BME280;12910;57.690;11.974;2023-01-28T09:54:39;101408.31;;;2.80;100.00
24825;BME280;12910;57.690;11.974;2023-01-28T09:57:20;101424.28;;;2.79;100.00
24825;BME280;12910;57.690;11.974;2023-01-28T09:59:47;101413.09;;;2.76;100.00
24825;BME280;12910;57.690;11.974;2023-01-28T10:02:36;101427.78;;;2.82;100.00
24825;BME280;12910;57.690;11.974;2023-01-28T10:05:30;101425.13;;;2.80;100.00
24825;BME280;12910;57.690;11.974;2023-01-28T10:08:06;101414.16;;;2.79;100.00
24825;BME280;12910;57.690;11.974;2023-01-28T10:16:40;101403.25;;;2.80;100.00
24825;BME280;12910;57.690;11.974;2023-01-28T10:19:43;101394.66;;;2.78;100.00
24825;BME280;12910;57.690;11.974;2023-01-28T10:22:34;101391.56;;;2.83;100.00
24825;BME280;12910;57.690;11.974;2023-01-28T10:25:05;101385.59;;;2.82;100.00
24825;BME280;12910;57.690;11.974;2023-01-28T10:27:33;101391.84;;;2.87;100.00
24825;BME280;12910;57.690;11.974;2023-01-28T10:32:47;101396.78;;;2.86;100.00
24825;BME280;12910;57.690;11.974;2023-01-28T10:35:13;101394.53;;;2.90;100.00
24825;BME280;12910;57.690;11.974;2023-01-28T10:37:39;101375.94;;;2.90;100.00
24825;BME280;12910;57.690;11.974;2023-01-28T10:40:05;101380.38;;;2.94;100.00
24825;BME280;12910;57.690;11.974;2023-01-28T10:42:37;101368.34;;;2.90;100.00
24825;BME280;12910;57.690;11.974;2023-01-28T10:47:37;101379.72;;;2.96;100.00
24825;BME280;12910;57.690;11.974;2023-01-28T10:50:04;101385.84;;;3.00;100.00
24825;BME280;12910;57.690;11.974;2023-01-28T10:52:30;101383.19;;;2.99;100.00
24825;BME280;12910;57.690;11.974;2023-01-28T10:55:00;101379.03;;;2.99;100.00
24825;BME280;12910;57.690;11.974;2023-01-28T10:57:26;101387.59;;;3.01;100.00
24825;BME280;12910;57.690;11.974;2023-01-28T10:59:52;101369.94;;;3.03;100.00
24825;BME280;12910;57.690;11.974;2023-01-28T11:02:32;101363.13;;;3.02;100.00
24825;BME280;12910;57.690;11.974;2023-01-28T11:05:27;101376.94;;;3.07;100.00
24825;BME280;12910;57.690;11.974;2023-01-28T11:08:12;101358.41;;;3.08;100.00
24825;BME280;12910;57.690;11.974;2023-01-28T11:10:39;101362.03;;;3.11;100.00
24825;BME280;12910;57.690;11.974;2023-01-28T11:13:13;101355.38;;;3.14;100.00
24825;BME280;12910;57.690;11.974;2023-01-28T11:15:50;101343.66;;;3.16;100.00
24825;BME280;12910;57.690;11.974;2023-01-28T11:18:29;101342.88;;;3.17;100.00
24825;BME280;12910;57.690;11.974;2023-01-28T11:21:02;101343.78;;;3.17;100.00
24825;BME280;12910;57.690;11.974;2023-01-28T11:23:33;101336.44;;;3.22;100.00
24825;BME280;12910;57.690;11.974;2023-01-28T11:26:04;101323.16;;;3.26;100.00
24825;BME280;12910;57.690;11.974;2023-01-28T11:28:30;101313.97;;;3.28;100.00
24825;BME280;12910;57.690;11.974;2023-01-28T11:30:57;101322.63;;;3.32;100.00
24825;BME280;12910;57.690;11.974;2023-01-28T11:36:23;101332.25;;;3.37;100.00
24825;BME280;12910;57.690;11.974;2023-01-28T11:39:24;101330.69;;;3.39;100.00
24825;BME280;12910;57.690;11.974;2023-01-28T11:41:53;101323.06;;;3.39;100.00
24825;BME280;12910;57.690;11.974;2023-01-28T11:44:26;101299.38;;;3.39;100.00
24825;BME280;12910;57.690;11.974;2023-01-28T11:47:18;101304.63;;;3.42;100.00
24825;BME280;12910;57.690;11.974;2023-01-28T11:53:00;101276.81;;;3.43;100.00
24825;BME280;12910;57.690;11.974;2023-01-28T11:55:36;101282.25;;;3.50;100.00
24825;BME280;12910;57.690;11.974;2023-01-28T11:58:25;101269.06;;;3.55;100.00
24825;BME280;12910;57.690;11.974;2023-01-28T12:01:09;101260.56;;;3.55;100.00
24825;BME280;12910;57.690;11.974;2023-01-28T12:18:23;101291.56;;;3.66;100.00
24825;BME280;12910;57.690;11.974;2023-01-28T12:21:05;101299.28;;;3.67;100.00
24825;BME280;12910;57.690;11.974;2023-01-28T12:23:45;101307.75;;;3.68;100.00
24825;BME280;12910;57.690;11.974;2023-01-28T12:26:44;101307.84;;;3.69;100.00
24825;BME280;12910;57.690;11.974;2023-01-28T12:32:15;101303.63;;;3.70;100.00
24825;BME280;12910;57.690;11.974;2023-01-28T12:46:03;101239.97;;;3.80;100.00
24825;BME280;12910;57.690;11.974;2023-01-28T12:48:38;101241.78;;;3.83;100.00
24825;BME280;12910;57.690;11.974;2023-01-28T12:51:17;101237.66;;;3.85;100.00
24825;BME280;12910;57.690;11.974;2023-01-28T12:54:05;101243.53;;;3.84;100.00
24825;BME280;12910;57.690;11.974;2023-01-28T12:56:39;101236.16;;;3.88;100.00
24825;BME280;12910;57.690;11.974;2023-01-28T13:02:14;101238.34;;;3.97;100.00
24825;BME280;12910;57.690;11.974;2023-01-28T13:10:28;101236.72;;;3.99;100.00
24825;BME280;12910;57.690;11.974;2023-01-28T13:12:59;101239.44;;;4.02;100.00
24825;BME280;12910;57.690;11.974;2023-01-28T13:15:25;101249.56;;;4.02;100.00
24825;BME280;12910;57.690;11.974;2023-01-28T13:17:58;101236.59;;;4.13;100.00
24825;BME280;12910;57.690;11.974;2023-01-28T13:20:49;101225.03;;;4.18;100.00
24825;BME280;12910;57.690;11.974;2023-01-28T13:25:52;101210.59;;;4.17;100.00
24825;BME280;12910;57.690;11.974;2023-01-28T13:28:32;101213.13;;;4.17;100.00
24825;BME280;12910;57.690;11.974;2023-01-28T13:31:03;101199.31;;;4.12;100.00
24825;BME280;12910;57.690;11.974;2023-01-28T13:33:35;101193.22;;;4.08;100.00
24825;BME280;12910;57.690;11.974;2023-01-28T13:36:09;101184.03;;;4.10;100.00
24825;BME280;12910;57.690;11.974;2023-01-28T13:38:38;101175.41;;;4.07;100.00
24825;BME280;12910;57.690;11.974;2023-01-28T13:41:04;101179.19;;;4.15;100.00
24825;BME280;12910;57.690;11.974;2023-01-28T13:46:09;101164.84;;;4.15;100.00
24825;BME280;12910;57.690;11.974;2023-01-28T13:48:53;101170.63;;;4.13;100.00
24825;BME280;12910;57.690;11.974;2023-01-28T13:51:27;101175.41;;;4.07;100.00
24825;BME280;12910;57.690;11.974;2023-01-28T13:54:06;101173.66;;;4.05;100.00
24825;BME280;12910;57.690;11.974;2023-01-28T13:56:48;101168.75;;;4.09;100.00
24825;BME280;12910;57.690;11.974;2023-01-28T14:05:02;101160.00;;;4.03;100.00
24825;BME280;12910;57.690;11.974;2023-01-28T14:08:11;101160.81;;;4.02;100.00
24825;BME280;12910;57.690;11.974;2023-01-28T14:18:46;101164.78;;;3.97;100.00
24825;BME280;12910;57.690;11.974;2023-01-28T14:21:18;101153.84;;;3.98;100.00
24825;BME280;12910;57.690;11.974;2023-01-28T14:23:54;101169.06;;;3.98;100.00
24825;BME280;12910;57.690;11.974;2023-01-28T14:31:54;101146.84;;;3.94;100.00
24825;BME280;12910;57.690;11.974;2023-01-28T14:34:26;101155.56;;;3.99;100.00
24825;BME280;12910;57.690;11.974;2023-01-28T14:36:56;101159.72;;;3.97;100.00